Time;durP1;ratioP1;P1;durP2;ratioP2;P2;SDS_P1;SDS_P2;PMS_P1;PMS_P2;Temp;Humidity;BMP_temperature;BMP_pressure;BME280_temperature;BME280_humidity;BME280_pressure;Samples;Min_cycle;Max_cycle;Signal;HPM_P1;HPM_P2
2021/08/18 00:00:58;;;;;;;19.10;16.57;;;15.80;99.90;;;;;;5030013;28;20555;-39
2021/08/18 00:03:24;;;;;;;18.60;16.70;;;15.70;99.90;;;;;;5026141;28;20190;-40
2021/08/18 00:05:50;;;;;;;19.50;16.17;;;15.80;99.90;;;;;;5025906;28;20190;-39
2021/08/18 00:08:15;;;;;;;20.13;16.97;;;15.80;99.90;;;;;;5038812;28;20197;-38
2021/08/18 00:10:42;;;;;;;18.53;16.50;;;15.80;99.90;;;;;;5037595;28;20194;-39
2021/08/18 00:13:10;;;;;;;19.80;15.63;;;15.80;99.90;;;;;;5026186;28;20518;-41
2021/08/18 00:15:37;;;;;;;16.60;14.80;;;15.80;99.90;;;;;;5024390;28;20998;-39
2021/08/18 00:18:03;;;;;;;16.73;14.90;;;15.80;99.90;;;;;;5025443;28;21033;-40
2021/08/18 00:20:30;;;;;;;15.57;13.87;;;15.70;99.90;;;;;;5024935;28;20508;-39
2021/08/18 00:22:56;;;;;;;17.30;14.50;;;15.70;99.90;;;;;;5030342;28;20435;-39
2021/08/18 00:25:24;;;;;;;16.40;14.10;;;15.70;99.90;;;;;;5027017;28;20425;-40
2021/08/18 00:27:50;;;;;;;14.67;12.70;;;15.70;99.90;;;;;;5031141;28;20573;-38
2021/08/18 00:30:15;;;;;;;14.67;13.10;;;15.70;99.90;;;;;;5029417;28;20432;-39
2021/08/18 00:32:41;;;;;;;14.70;12.50;;;15.80;99.90;;;;;;5031231;28;20421;-40
2021/08/18 00:35:07;;;;;;;15.03;13.23;;;15.80;99.90;;;;;;5025351;28;20590;-39
2021/08/18 00:37:33;;;;;;;14.07;12.57;;;15.80;99.90;;;;;;5025323;28;20191;-40
2021/08/18 00:39:59;;;;;;;12.80;11.37;;;15.80;99.90;;;;;;5036993;28;20408;-40
2021/08/18 00:42:25;;;;;;;14.93;13.30;;;15.80;99.90;;;;;;5030022;28;20677;-40
2021/08/18 00:44:52;;;;;;;14.07;12.67;;;15.80;99.90;;;;;;5025539;28;20820;-39
2021/08/18 00:47:17;;;;;;;14.00;11.70;;;15.80;99.90;;;;;;5029976;28;20221;-39
2021/08/18 00:49:43;;;;;;;14.73;12.73;;;15.80;99.90;;;;;;5025044;28;20465;-39
2021/08/18 00:52:09;;;;;;;14.00;12.10;;;15.80;99.90;;;;;;5027031;28;20199;-41
2021/08/18 00:54:34;;;;;;;13.40;12.00;;;15.80;99.90;;;;;;5033444;28;20580;-39
2021/08/18 00:57:02;;;;;;;14.10;12.60;;;15.80;99.90;;;;;;5036093;28;20192;-39
2021/08/18 00:59:30;;;;;;;14.67;11.77;;;15.80;99.90;;;;;;5028525;28;20693;-39
2021/08/18 01:01:56;;;;;;;16.80;11.47;;;15.70;99.90;;;;;;5030202;28;20512;-40
2021/08/18 01:04:21;;;;;;;13.77;12.27;;;15.70;99.90;;;;;;5029087;28;20417;-38
2021/08/18 01:06:47;;;;;;;13.27;11.90;;;15.80;99.90;;;;;;5028906;28;20451;-39
2021/08/18 01:09:18;;;;;;;12.27;11.07;;;15.80;99.90;;;;;;5031998;28;20554;-40
2021/08/18 01:11:46;;;;;;;13.63;12.20;;;15.80;99.90;;;;;;5033364;28;20789;-39
2021/08/18 01:14:12;;;;;;;11.87;10.67;;;15.80;99.90;;;;;;5028006;28;20517;-40
2021/08/18 01:16:42;;;;;;;13.30;11.87;;;15.80;99.90;;;;;;5038769;28;20425;-39
2021/08/18 01:19:10;;;;;;;12.43;10.70;;;15.80;99.90;;;;;;5028517;28;20452;-40
2021/08/18 01:21:40;;;;;;;11.50;10.20;;;15.80;99.90;;;;;;5028415;28;20429;-38
2021/08/18 01:24:07;;;;;;;11.60;10.37;;;15.80;99.90;;;;;;5040156;28;20441;-39
2021/08/18 01:26:33;;;;;;;11.70;10.50;;;15.80;99.90;;;;;;5033638;28;20524;-39
2021/08/18 01:29:00;;;;;;;12.73;11.43;;;15.80;99.90;;;;;;5027783;28;20639;-41
2021/08/18 01:31:26;;;;;;;12.23;11.00;;;15.80;99.90;;;;;;5034480;28;20505;-39
2021/08/18 01:33:52;;;;;;;14.23;11.60;;;15.80;99.90;;;;;;5028183;28;20428;-39
2021/08/18 01:36:21;;;;;;;12.10;10.80;;;15.80;99.90;;;;;;5028256;28;20471;-40
2021/08/18 01:38:47;;;;;;;13.10;10.60;;;15.80;99.90;;;;;;5037230;28;20189;-40
2021/08/18 01:41:12;;;;;;;13.97;10.93;;;15.80;99.90;;;;;;5041110;28;20787;-43
2021/08/18 01:43:38;;;;;;;18.50;12.67;;;15.90;99.90;;;;;;5036592;28;20190;-40
2021/08/18 01:46:04;;;;;;;13.40;11.33;;;15.80;99.90;;;;;;5030786;28;20212;-39
2021/08/18 01:48:32;;;;;;;14.40;12.90;;;15.80;99.90;;;;;;5027582;28;20198;-41
2021/08/18 01:50:59;;;;;;;14.00;12.43;;;15.70;99.90;;;;;;5027525;28;20263;-40
2021/08/18 01:53:26;;;;;;;15.07;13.23;;;15.80;99.90;;;;;;5030215;28;20441;-40
2021/08/18 01:55:52;;;;;;;12.33;10.90;;;15.80;99.90;;;;;;5044541;28;20472;-39
2021/08/18 01:58:18;;;;;;;14.20;12.50;;;15.80;99.90;;;;;;5029465;28;20491;-39
2021/08/18 02:00:44;;;;;;;17.40;13.00;;;15.70;99.90;;;;;;5030532;28;20280;-40
2021/08/18 02:03:09;;;;;;;16.33;12.33;;;15.70;99.90;;;;;;5035638;28;20432;-39
2021/08/18 02:05:35;;;;;;;16.53;14.27;;;15.70;99.90;;;;;;5027716;28;20795;-39
2021/08/18 02:08:02;;;;;;;16.60;12.77;;;15.80;99.90;;;;;;5028062;28;20237;-40
2021/08/18 02:10:28;;;;;;;15.90;14.20;;;15.80;99.90;;;;;;5038245;28;20418;-40
2021/08/18 02:12:54;;;;;;;16.10;14.20;;;15.80;99.90;;;;;;5032944;28;20439;-41
2021/08/18 02:15:23;;;;;;;17.30;13.77;;;15.80;99.90;;;;;;5025903;28;20218;-39
2021/08/18 02:17:50;;;;;;;16.90;14.90;;;15.80;99.90;;;;;;5039428;28;20448;-39
2021/08/18 02:20:19;;;;;;;15.80;14.10;;;15.80;99.90;;;;;;5046517;28;20426;-39
2021/08/18 02:22:44;;;;;;;16.27;14.50;;;15.80;99.90;;;;;;5043084;28;20439;-40
2021/08/18 02:25:11;;;;;;;16.30;14.03;;;15.80;99.90;;;;;;5036790;28;20421;-40
2021/08/18 02:27:37;;;;;;;16.60;14.60;;;15.80;99.90;;;;;;5044435;28;20193;-39
2021/08/18 02:30:04;;;;;;;16.30;14.47;;;15.80;99.90;;;;;;5026515;28;20483;-39
2021/08/18 02:32:30;;;;;;;15.40;13.13;;;15.80;99.90;;;;;;5029870;28;20516;-39
2021/08/18 02:34:55;;;;;;;17.83;14.80;;;15.90;99.90;;;;;;5027356;28;21002;-39
2021/08/18 02:37:22;;;;;;;16.23;13.60;;;15.90;99.90;;;;;;5026955;28;20204;-39
2021/08/18 02:39:47;;;;;;;15.53;13.87;;;15.90;99.90;;;;;;5043995;28;20181;-41
2021/08/18 02:42:13;;;;;;;16.07;13.40;;;15.80;99.90;;;;;;5039271;28;20465;-38
2021/08/18 02:44:38;;;;;;;16.27;13.40;;;15.90;99.90;;;;;;5027288;28;20194;-39
2021/08/18 02:47:04;;;;;;;16.73;14.93;;;15.90;99.90;;;;;;5038877;28;20203;-41
2021/08/18 02:49:30;;;;;;;16.83;14.40;;;15.90;99.90;;;;;;5026241;28;20215;-40
2021/08/18 02:51:56;;;;;;;16.53;14.07;;;15.90;99.90;;;;;;5025807;28;20468;-38
2021/08/18 02:54:23;;;;;;;18.30;14.47;;;15.90;99.90;;;;;;5028472;28;20194;-39
2021/08/18 02:56:53;;;;;;;16.50;14.00;;;15.90;99.90;;;;;;5038661;28;20192;-41
2021/08/18 02:59:19;;;;;;;16.87;14.00;;;15.90;99.90;;;;;;5026202;28;20426;-39
2021/08/18 03:01:45;;;;;;;17.50;14.40;;;15.90;99.90;;;;;;5033832;28;20428;-39
2021/08/18 03:04:11;;;;;;;16.40;13.53;;;15.80;99.90;;;;;;5026818;28;20417;-40
2021/08/18 03:06:36;;;;;;;16.57;14.37;;;15.80;99.90;;;;;;5026507;28;20430;-40
2021/08/18 03:09:03;;;;;;;16.47;14.50;;;15.90;99.90;;;;;;5024142;28;20206;-41
2021/08/18 03:11:28;;;;;;;16.70;13.47;;;15.80;99.90;;;;;;5036717;28;20208;-40
2021/08/18 03:13:54;;;;;;;20.80;13.60;;;15.80;99.90;;;;;;5037691;28;20432;-42
2021/08/18 03:16:20;;;;;;;17.77;14.03;;;15.80;99.90;;;;;;5028324;28;20233;-40
2021/08/18 03:18:45;;;;;;;19.70;14.80;;;15.80;99.90;;;;;;5025903;28;20673;-39
2021/08/18 03:21:11;;;;;;;17.00;12.87;;;15.80;99.90;;;;;;5026243;28;20186;-40
2021/08/18 03:23:37;;;;;;;13.90;12.17;;;15.80;99.90;;;;;;5030751;28;20213;-39
2021/08/18 03:26:03;;;;;;;21.53;12.63;;;15.80;99.90;;;;;;5038519;28;20530;-39
2021/08/18 03:28:28;;;;;;;14.97;12.63;;;15.80;99.90;;;;;;5028614;28;20194;-40
2021/08/18 03:30:54;;;;;;;15.70;12.73;;;15.90;99.90;;;;;;5025630;28;20425;-39
2021/08/18 03:33:19;;;;;;;15.23;12.20;;;15.90;99.90;;;;;;5038778;28;20336;-39
2021/08/18 03:35:45;;;;;;;16.00;12.77;;;15.90;99.90;;;;;;5025945;28;20210;-39
2021/08/18 03:38:11;;;;;;;17.43;12.47;;;15.90;99.90;;;;;;5029690;28;20198;-39
2021/08/18 03:40:36;;;;;;;16.83;12.60;;;15.90;99.90;;;;;;5036061;28;20637;-42
2021/08/18 03:43:03;;;;;;;15.70;12.77;;;15.90;99.90;;;;;;5029752;28;20632;-39
2021/08/18 03:45:28;;;;;;;14.03;12.27;;;15.90;99.90;;;;;;5025654;28;20221;-39
2021/08/18 03:47:54;;;;;;;16.13;12.40;;;15.90;99.90;;;;;;5035132;28;20421;-40
2021/08/18 03:50:20;;;;;;;14.27;11.83;;;15.90;99.90;;;;;;5025327;28;20222;-39
2021/08/18 03:52:46;;;;;;;15.00;12.00;;;15.80;99.90;;;;;;5025766;28;20636;-41
2021/08/18 03:55:13;;;;;;;15.87;12.60;;;15.80;99.90;;;;;;5036845;28;20213;-39
2021/08/18 03:57:39;;;;;;;16.80;13.03;;;15.90;99.90;;;;;;5044587;28;20435;-38
2021/08/18 04:00:08;;;;;;;15.70;13.00;;;15.90;99.90;;;;;;5031924;28;20433;-42
2021/08/18 04:02:34;;;;;;;13.67;12.20;;;15.80;99.90;;;;;;5024862;28;20227;-42
2021/08/18 04:04:59;;;;;;;13.73;11.37;;;15.80;99.90;;;;;;5025594;28;20530;-38
2021/08/18 04:07:25;;;;;;;13.10;11.70;;;15.80;99.90;;;;;;5025682;28;20587;-39
2021/08/18 04:09:51;;;;;;;16.50;13.00;;;15.80;99.90;;;;;;5032539;28;20244;-39
2021/08/18 04:12:16;;;;;;;14.70;12.87;;;15.80;99.90;;;;;;5037879;28;20277;-39
2021/08/18 04:14:42;;;;;;;14.77;12.47;;;15.80;99.90;;;;;;5030023;28;20218;-39
2021/08/18 04:17:08;;;;;;;21.20;14.43;;;15.80;99.90;;;;;;5026669;28;20270;-38
2021/08/18 04:19:36;;;;;;;15.43;12.33;;;15.80;99.90;;;;;;5025304;28;20264;-39
2021/08/18 04:22:01;;;;;;;16.23;13.53;;;15.80;99.90;;;;;;5025716;28;20186;-38
2021/08/18 04:24:27;;;;;;;15.60;13.63;;;15.80;99.90;;;;;;5026379;28;20459;-39
2021/08/18 04:26:53;;;;;;;14.17;12.10;;;15.80;99.90;;;;;;5043063;28;20451;-39
2021/08/18 04:29:18;;;;;;;16.73;13.63;;;15.80;99.90;;;;;;5030296;28;20198;-39
2021/08/18 04:31:44;;;;;;;15.50;13.03;;;15.80;99.90;;;;;;5032326;28;20201;-39
2021/08/18 04:34:10;;;;;;;14.23;12.00;;;15.80;99.90;;;;;;5049600;28;20185;-39
2021/08/18 04:36:35;;;;;;;15.70;13.00;;;15.80;99.90;;;;;;5029841;28;20507;-41
2021/08/18 04:39:01;;;;;;;16.63;13.43;;;15.80;99.90;;;;;;5035408;28;20221;-39
2021/08/18 04:41:27;;;;;;;16.00;14.30;;;15.90;99.90;;;;;;5038800;28;20193;-38
2021/08/18 04:43:52;;;;;;;16.37;12.70;;;15.80;99.90;;;;;;5035411;28;20194;-39
2021/08/18 04:46:18;;;;;;;17.37;13.70;;;15.80;99.90;;;;;;5029291;28;20195;-41
2021/08/18 04:48:44;;;;;;;13.67;12.20;;;15.80;99.90;;;;;;5033780;28;20251;-40
2021/08/18 04:51:09;;;;;;;15.27;12.40;;;15.80;99.90;;;;;;5029321;28;20244;-39
2021/08/18 04:53:35;;;;;;;15.07;13.00;;;15.90;99.90;;;;;;5028867;28;20225;-38
2021/08/18 04:56:02;;;;;;;13.97;12.27;;;15.80;99.90;;;;;;5047618;28;20214;-39
2021/08/18 04:58:28;;;;;;;14.23;12.60;;;15.80;99.90;;;;;;5044607;28;20619;-39
2021/08/18 05:00:53;;;;;;;14.33;12.83;;;15.80;99.90;;;;;;5028636;28;20417;-39
2021/08/18 05:03:19;;;;;;;13.40;11.30;;;15.80;99.90;;;;;;5029451;28;20194;-39
2021/08/18 05:05:44;;;;;;;13.60;12.30;;;15.80;99.90;;;;;;5027828;28;20201;-39
2021/08/18 05:08:10;;;;;;;11.80;10.20;;;15.80;99.90;;;;;;5027958;28;20548;-39
2021/08/18 05:10:37;;;;;;;10.77;9.67;;;15.80;99.90;;;;;;5035247;28;20190;-38
2021/08/18 05:13:03;;;;;;;10.50;9.40;;;15.80;99.90;;;;;;5040166;28;20202;-39
2021/08/18 05:15:30;;;;;;;10.40;8.37;;;15.90;99.90;;;;;;5028843;28;20678;-39
2021/08/18 05:17:56;;;;;;;8.53;7.40;;;15.90;99.90;;;;;;5039311;28;20424;-39
2021/08/18 05:20:22;;;;;;;8.37;7.50;;;15.90;99.90;;;;;;5028195;28;20428;-39
2021/08/18 05:22:48;;;;;;;6.80;6.10;;;15.80;99.90;;;;;;5028784;28;20190;-39
2021/08/18 05:25:15;;;;;;;6.90;6.20;;;15.90;99.90;;;;;;5028493;28;20421;-38
2021/08/18 05:27:42;;;;;;;6.67;5.97;;;15.80;99.90;;;;;;5040517;28;20427;-38
2021/08/18 05:30:09;;;;;;;5.00;4.50;;;15.90;99.90;;;;;;5027734;28;20441;-39
2021/08/18 05:32:36;;;;;;;4.90;4.43;;;15.80;99.90;;;;;;5031440;28;20420;-39
2021/08/18 05:35:03;;;;;;;4.80;4.10;;;15.70;99.90;;;;;;5039666;28;20822;-39
2021/08/18 05:37:29;;;;;;;4.70;3.93;;;15.70;99.90;;;;;;5047934;28;20421;-38
2021/08/18 05:39:54;;;;;;;4.30;3.90;;;15.70;99.90;;;;;;5042001;28;20441;-38
2021/08/18 05:42:20;;;;;;;4.93;4.40;;;15.70;99.90;;;;;;5038841;28;20251;-39
2021/08/18 05:44:46;;;;;;;4.50;4.10;;;15.80;99.90;;;;;;5030098;28;20201;-38
2021/08/18 05:47:11;;;;;;;4.67;4.10;;;15.70;99.90;;;;;;5029431;28;20660;-38
2021/08/18 05:49:37;;;;;;;4.73;4.33;;;15.70;99.90;;;;;;5027530;28;20535;-38
2021/08/18 05:52:03;;;;;;;4.63;4.10;;;15.70;99.90;;;;;;5028768;28;20182;-39
2021/08/18 05:54:28;;;;;;;4.60;4.03;;;15.70;99.90;;;;;;5034623;28;20704;-38
2021/08/18 05:56:54;;;;;;;3.70;3.40;;;15.70;99.90;;;;;;5036643;28;20272;-38
2021/08/18 05:59:20;;;;;;;3.33;3.03;;;15.70;99.90;;;;;;5031344;28;20189;-39
2021/08/18 06:01:45;;;;;;;4.27;3.60;;;15.70;99.90;;;;;;5028172;28;20389;-40
2021/08/18 06:04:11;;;;;;;4.40;3.83;;;15.70;99.90;;;;;;5037818;28;20193;-39
2021/08/18 06:06:37;;;;;;;6.83;3.57;;;15.70;99.90;;;;;;5027946;28;20676;-38
2021/08/18 06:09:03;;;;;;;4.53;4.03;;;15.80;99.90;;;;;;5025189;28;20213;-38
2021/08/18 06:11:28;;;;;;;3.73;3.43;;;15.70;99.90;;;;;;5035903;28;20186;-39
2021/08/18 06:13:54;;;;;;;5.00;3.83;;;15.80;99.90;;;;;;5031455;28;20243;-41
2021/08/18 06:16:20;;;;;;;4.40;4.00;;;15.70;99.90;;;;;;5028214;28;20214;-39
2021/08/18 06:18:47;;;;;;;4.47;4.07;;;15.80;99.90;;;;;;5034613;28;20182;-38
2021/08/18 06:21:13;;;;;;;4.83;4.43;;;15.80;99.90;;;;;;5026463;28;20421;-38
2021/08/18 06:23:39;;;;;;;4.50;3.90;;;15.80;99.90;;;;;;5026012;28;20422;-39
2021/08/18 06:26:04;;;;;;;5.00;4.60;;;15.80;99.90;;;;;;5034802;28;20193;-38
2021/08/18 06:28:30;;;;;;;5.03;4.10;;;15.80;99.90;;;;;;5041342;28;20851;-38
2021/08/18 06:30:57;;;;;;;7.10;5.10;;;15.80;99.90;;;;;;5034857;28;20265;-38
2021/08/18 06:33:23;;;;;;;6.20;5.60;;;15.80;99.90;;;;;;5039663;28;20185;-38
2021/08/18 06:35:49;;;;;;;6.07;5.53;;;15.90;99.90;;;;;;5032897;28;20563;-38
2021/08/18 06:38:14;;;;;;;5.60;5.10;;;15.90;99.90;;;;;;5032346;28;20480;-38
2021/08/18 06:40:40;;;;;;;5.13;4.63;;;15.90;99.90;;;;;;5036136;28;20216;-38
2021/08/18 06:43:05;;;;;;;6.70;5.60;;;15.90;99.90;;;;;;5043753;28;20190;-38
2021/08/18 06:45:31;;;;;;;6.30;5.70;;;15.90;99.90;;;;;;5027121;28;20198;-38
2021/08/18 06:47:57;;;;;;;7.97;6.90;;;16.00;99.90;;;;;;5031359;28;20572;-38
2021/08/18 06:50:23;;;;;;;6.57;5.87;;;15.90;99.90;;;;;;5043199;28;20197;-38
2021/08/18 06:52:49;;;;;;;6.93;6.17;;;15.90;99.90;;;;;;5035557;28;20277;-38
2021/08/18 06:55:15;;;;;;;6.73;5.90;;;15.90;99.90;;;;;;5036658;28;20973;-38
2021/08/18 06:57:41;;;;;;;6.90;6.23;;;15.90;99.90;;;;;;5040210;28;20235;-38
2021/08/18 07:00:09;;;;;;;6.10;5.57;;;15.90;99.90;;;;;;5030103;28;20417;-38
2021/08/18 07:02:45;;;;;;;4.90;4.50;;;15.90;99.90;;;;;;5026233;28;20424;-38
2021/08/18 07:05:11;;;;;;;5.83;5.33;;;15.90;99.90;;;;;;5036847;28;20503;-38
2021/08/18 07:07:37;;;;;;;6.80;5.60;;;15.90;99.90;;;;;;5039939;28;20527;-38
2021/08/18 07:10:10;;;;;;;5.23;4.83;;;15.90;99.90;;;;;;5116184;27;20554;-38
2021/08/18 07:12:36;;;;;;;5.13;4.63;;;15.80;99.90;;;;;;5122506;27;20425;-38
2021/08/18 07:15:02;;;;;;;5.43;4.93;;;15.80;99.90;;;;;;5123907;28;20429;-39
2021/08/18 07:17:27;;;;;;;5.33;4.83;;;15.80;99.90;;;;;;5140074;27;20179;-37
2021/08/18 07:19:53;;;;;;;5.03;4.57;;;15.80;99.90;;;;;;5123024;28;20867;-37
2021/08/18 07:22:19;;;;;;;5.43;4.93;;;15.90;99.90;;;;;;5124321;28;20182;-37
2021/08/18 07:24:44;;;;;;;5.83;5.33;;;15.90;99.90;;;;;;5101700;28;20194;-37
2021/08/18 07:27:10;;;;;;;6.97;6.17;;;15.90;99.90;;;;;;5113170;28;20183;-37
2021/08/18 07:29:36;;;;;;;6.90;6.20;;;16.00;99.90;;;;;;5122861;28;20203;-36
2021/08/18 07:32:02;;;;;;;7.20;6.50;;;16.00;99.90;;;;;;5123915;28;20247;-37
2021/08/18 07:34:27;;;;;;;10.17;6.20;;;16.00;99.90;;;;;;5122997;28;20183;-37
2021/08/18 07:36:53;;;;;;;8.83;5.93;;;16.00;99.90;;;;;;5122803;28;20500;-37
2021/08/18 07:39:18;;;;;;;6.20;5.60;;;16.10;99.90;;;;;;5121081;28;20187;-38
2021/08/18 07:41:44;;;;;;;7.53;6.83;;;16.10;99.90;;;;;;5111386;28;20429;-37
2021/08/18 07:44:10;;;;;;;7.10;6.43;;;16.20;99.90;;;;;;5121569;28;20478;-38
2021/08/18 07:46:36;;;;;;;7.90;7.07;;;16.20;99.90;;;;;;5122147;28;20310;-41
2021/08/18 07:49:01;;;;;;;11.73;9.30;;;16.20;99.90;;;;;;5120995;28;20693;-39
2021/08/18 07:51:27;;;;;;;10.93;9.90;;;16.20;99.90;;;;;;5122307;28;20179;-37
2021/08/18 07:53:52;;;;;;;12.43;10.80;;;16.30;99.90;;;;;;5123367;28;20209;-38
2021/08/18 07:56:18;;;;;;;10.47;9.43;;;16.30;99.90;;;;;;5110693;28;20184;-38
2021/08/18 07:58:44;;;;;;;12.83;11.53;;;16.30;99.90;;;;;;5087068;28;20187;-40
2021/08/18 08:01:09;;;;;;;13.50;12.10;;;16.30;99.90;;;;;;5122870;28;20252;-39
2021/08/18 08:03:35;;;;;;;12.87;11.50;;;16.40;99.90;;;;;;5122928;28;20676;-38
2021/08/18 08:06:01;;;;;;;14.83;12.30;;;16.40;99.90;;;;;;5123151;28;20588;-38
2021/08/18 08:08:26;;;;;;;14.30;12.80;;;16.50;99.90;;;;;;5121758;28;20647;-37
2021/08/18 08:10:52;;;;;;;16.13;14.20;;;16.50;99.90;;;;;;5116037;28;20183;-38
2021/08/18 08:13:18;;;;;;;15.47;13.80;;;16.50;99.90;;;;;;5119189;28;20440;-39
2021/08/18 08:15:43;;;;;;;16.73;14.70;;;16.50;99.90;;;;;;5122943;28;20506;-37
2021/08/18 08:18:10;;;;;;;16.60;14.50;;;16.50;99.90;;;;;;5122665;28;20201;-38
2021/08/18 08:20:38;;;;;;;17.43;15.60;;;16.50;99.90;;;;;;5113998;28;20180;-40
2021/08/18 08:23:05;;;;;;;16.33;14.63;;;16.60;99.90;;;;;;5109017;28;20433;-38
2021/08/18 08:25:31;;;;;;;19.47;14.27;;;16.60;99.90;;;;;;5103210;28;20856;-39
2021/08/18 08:27:57;;;;;;;17.67;14.77;;;16.60;99.90;;;;;;5104373;28;20429;-39
2021/08/18 08:30:23;;;;;;;17.53;15.80;;;16.60;99.90;;;;;;5107994;28;20868;-38
2021/08/18 08:32:49;;;;;;;18.00;15.10;;;16.70;99.90;;;;;;5108521;28;20836;-40
2021/08/18 08:35:15;;;;;;;16.50;14.77;;;16.70;99.90;;;;;;5108887;28;20468;-40
2021/08/18 08:37:41;;;;;;;16.70;14.70;;;16.80;99.90;;;;;;5108834;28;20426;-39
2021/08/18 08:40:07;;;;;;;20.67;16.20;;;16.80;99.90;;;;;;5106391;28;20192;-38
2021/08/18 08:42:33;;;;;;;17.47;15.13;;;16.90;99.90;;;;;;5104383;28;20191;-38
2021/08/18 08:45:03;;;;;;;16.53;14.23;;;16.90;99.90;;;;;;5108927;28;20433;-39
2021/08/18 08:47:30;;;;;;;17.30;14.20;;;17.00;99.90;;;;;;5108098;28;20188;-39
2021/08/18 08:49:56;;;;;;;14.20;12.57;;;17.00;99.90;;;;;;5108079;28;20502;-41
2021/08/18 08:52:22;;;;;;;15.60;13.47;;;17.10;99.90;;;;;;5108456;28;20437;-39
2021/08/18 08:54:48;;;;;;;13.10;11.70;;;17.10;99.90;;;;;;5108754;28;20414;-42
2021/08/18 08:57:14;;;;;;;14.53;12.07;;;17.20;99.90;;;;;;5098752;28;20662;-40
2021/08/18 08:59:40;;;;;;;13.70;12.00;;;17.20;99.90;;;;;;5107484;28;20526;-40
2021/08/18 09:02:07;;;;;;;11.93;10.73;;;17.30;99.90;;;;;;5107723;28;20965;-38
2021/08/18 09:04:39;;;;;;;11.87;10.60;;;17.30;99.90;;;;;;5108106;28;20225;-38
2021/08/18 09:07:07;;;;;;;13.87;10.90;;;17.40;99.90;;;;;;5107999;28;20432;-38
2021/08/18 09:09:34;;;;;;;10.70;9.60;;;17.50;99.90;;;;;;5106103;28;20605;-38
2021/08/18 09:12:05;;;;;;;10.73;9.70;;;17.50;99.90;;;;;;5059572;28;20587;-37
2021/08/18 09:14:31;;;;;;;10.07;9.07;;;17.60;99.90;;;;;;5105753;28;20413;-39
2021/08/18 09:16:57;;;;;;;10.43;9.33;;;17.60;99.90;;;;;;5090030;28;20420;-38
2021/08/18 09:19:32;;;;;;;12.13;9.00;;;17.60;99.90;;;;;;5107355;28;20210;-40
2021/08/18 09:22:06;;;;;;;9.50;8.50;;;17.70;99.90;;;;;;5108061;28;20592;-41
2021/08/18 09:24:31;;;;;;;8.80;7.80;;;17.70;99.90;;;;;;5108110;28;20430;-37
2021/08/18 09:27:08;;;;;;;9.23;8.33;;;17.70;99.90;;;;;;5096527;28;20441;-40
2021/08/18 09:29:36;;;;;;;8.93;7.83;;;17.70;99.90;;;;;;5105393;28;20624;-38
2021/08/18 09:32:18;;;;;;;10.87;8.50;;;17.70;99.90;;;;;;5096081;28;20449;-39
2021/08/18 09:34:53;;;;;;;9.57;8.60;;;17.70;99.90;;;;;;5107423;28;20413;-40
2021/08/18 09:37:18;;;;;;;7.80;7.10;;;17.70;99.90;;;;;;5107569;28;21066;-40
2021/08/18 09:39:44;;;;;;;10.70;8.70;;;17.70;99.90;;;;;;5106427;28;20486;-39
2021/08/18 09:42:32;;;;;;;9.20;8.17;;;17.70;99.90;;;;;;5094486;28;20269;-40
2021/08/18 09:45:39;;;;;;;12.00;8.57;;;17.70;99.90;;;;;;5107268;28;20603;-37
2021/08/18 09:48:05;;;;;;;9.83;8.83;;;17.60;99.90;;;;;;5024046;28;20966;-41
2021/08/18 09:50:48;;;;;;;12.80;9.60;;;17.60;99.90;;;;;;5023189;28;20825;-38
2021/08/18 09:53:16;;;;;;;11.43;10.13;;;17.60;99.90;;;;;;5073207;28;20414;-40
2021/08/18 09:56:04;;;;;;;11.47;10.27;;;17.60;99.90;;;;;;5105244;28;20486;-38
2021/08/18 09:58:41;;;;;;;10.73;9.73;;;17.50;99.90;;;;;;5105034;28;20415;-42
2021/08/18 10:01:11;;;;;;;14.43;11.43;;;17.60;99.90;;;;;;5107011;28;20420;-38
2021/08/18 10:03:38;;;;;;;12.30;11.10;;;17.50;99.90;;;;;;5107021;28;20425;-37
2021/08/18 10:06:06;;;;;;;12.50;10.90;;;17.60;99.90;;;;;;5106741;28;20433;-40
2021/08/18 10:08:33;;;;;;;12.77;10.40;;;17.60;99.90;;;;;;5105028;28;20915;-40
2021/08/18 10:10:59;;;;;;;13.10;11.80;;;17.60;99.90;;;;;;5104314;28;20429;-40
2021/08/18 10:13:26;;;;;;;12.20;11.00;;;17.60;99.90;;;;;;5102485;28;20959;-41
2021/08/18 10:15:52;;;;;;;10.90;9.90;;;17.60;99.90;;;;;;5106798;28;20458;-38
2021/08/18 10:18:28;;;;;;;14.30;12.27;;;17.60;99.90;;;;;;5106740;28;20433;-42
2021/08/18 10:21:06;;;;;;;11.67;10.57;;;17.60;99.90;;;;;;5105893;28;20450;-39
2021/08/18 10:23:57;;;;;;;13.43;12.13;;;17.60;99.90;;;;;;5106721;28;20456;-41
2021/08/18 10:26:35;;;;;;;15.77;14.17;;;17.60;99.90;;;;;;5102569;28;20483;-40
2021/08/18 10:29:04;;;;;;;16.00;14.40;;;17.60;99.90;;;;;;5099834;28;20457;-38
2021/08/18 10:31:48;;;;;;;19.43;17.33;;;17.60;99.90;;;;;;5106118;28;21006;-40
2021/08/18 10:34:25;;;;;;;19.43;17.33;;;17.60;99.90;;;;;;5106900;28;20421;-42
2021/08/18 10:36:56;;;;;;;20.43;17.37;;;17.70;99.90;;;;;;5106411;28;20470;-39
2021/08/18 10:39:25;;;;;;;18.60;16.60;;;17.70;99.90;;;;;;5105826;28;20468;-40
2021/08/18 10:42:03;;;;;;;18.90;16.53;;;17.70;99.90;;;;;;5082177;28;20491;-41
2021/08/18 10:44:49;;;;;;;17.90;16.10;;;17.70;99.90;;;;;;5104442;28;20890;-42
2021/08/18 10:47:26;;;;;;;17.70;15.80;;;17.80;99.90;;;;;;5106249;28;20508;-39
2021/08/18 10:49:59;;;;;;;17.07;14.50;;;17.90;99.90;;;;;;5105587;28;20464;-38
2021/08/18 10:52:28;;;;;;;14.87;13.37;;;17.90;99.90;;;;;;5106374;28;20990;-41
2021/08/18 10:55:07;;;;;;;14.97;13.57;;;17.80;99.90;;;;;;5106598;28;20425;-38
2021/08/18 10:57:35;;;;;;;13.37;11.97;;;17.90;99.90;;;;;;5098603;28;20955;-37
2021/08/18 11:00:08;;;;;;;13.27;12.03;;;17.90;99.90;;;;;;5105296;28;20498;-41
2021/08/18 11:02:56;;;;;;;13.47;12.17;;;17.80;99.90;;;;;;5105886;28;20410;-38
2021/08/18 11:05:38;;;;;;;13.97;12.57;;;17.80;99.90;;;;;;5106156;28;20800;-39
2021/08/18 11:08:23;;;;;;;12.80;11.50;;;17.80;99.90;;;;;;5105874;28;20433;-40
2021/08/18 11:10:55;;;;;;;13.23;11.93;;;17.80;99.90;;;;;;5087105;28;20493;-38
2021/08/18 11:13:39;;;;;;;12.60;10.90;;;17.90;99.90;;;;;;5090088;28;20449;-38
2021/08/18 11:16:12;;;;;;;11.37;10.23;;;17.90;99.90;;;;;;5100774;28;20417;-40
2021/08/18 11:18:51;;;;;;;12.13;10.27;;;17.90;99.90;;;;;;5105255;28;20787;-38
2021/08/18 11:21:23;;;;;;;11.37;10.37;;;17.90;99.90;;;;;;5105879;28;20771;-39
2021/08/18 11:23:58;;;;;;;11.50;10.33;;;17.90;99.90;;;;;;5105652;28;20505;-41
2021/08/18 11:26:27;;;;;;;10.83;9.83;;;18.00;99.90;;;;;;5105719;28;20421;-39
2021/08/18 11:29:02;;;;;;;10.63;9.53;;;18.00;99.90;;;;;;5095528;28;20506;-39
2021/08/18 11:31:34;;;;;;;9.07;8.27;;;18.00;99.90;;;;;;5105810;28;20835;-38
2021/08/18 11:34:01;;;;;;;7.87;7.17;;;18.00;99.90;;;;;;5105258;28;20417;-39
2021/08/18 11:36:32;;;;;;;8.57;7.67;;;18.00;99.90;;;;;;5105657;28;20502;-38
2021/08/18 11:38:59;;;;;;;7.80;7.00;;;18.00;99.90;;;;;;5105228;28;20433;-41
2021/08/18 11:41:33;;;;;;;6.30;5.70;;;18.10;99.90;;;;;;5105707;28;20436;-43
2021/08/18 11:43:59;;;;;;;5.83;5.33;;;18.10;99.90;;;;;;5093356;28;20817;-45
2021/08/18 11:46:25;;;;;;;5.63;5.13;;;18.10;99.90;;;;;;5105280;28;20422;-43
2021/08/18 11:48:51;;;;;;;5.43;4.93;;;18.10;99.90;;;;;;5104700;28;20214;-40
2021/08/18 11:51:20;;;;;;;5.53;5.13;;;18.10;99.90;;;;;;5105626;28;20417;-39
2021/08/18 11:53:55;;;;;;;5.53;5.10;;;18.20;99.90;;;;;;5105631;28;20195;-42
2021/08/18 11:56:26;;;;;;;5.90;5.40;;;18.20;99.90;;;;;;5108717;28;20488;-40
2021/08/18 11:59:00;;;;;;;6.60;6.00;;;18.30;99.90;;;;;;5098679;28;20509;-39
2021/08/18 12:01:27;;;;;;;6.93;6.33;;;18.30;99.90;;;;;;5109203;28;20417;-38
2021/08/18 12:03:53;;;;;;;8.10;7.40;;;18.30;99.90;;;;;;5108952;28;20425;-41
2021/08/18 12:06:35;;;;;;;7.57;6.87;;;18.30;99.90;;;;;;5109467;28;20674;-38
2021/08/18 12:09:04;;;;;;;9.00;8.20;;;18.40;99.90;;;;;;5106695;28;20496;-39
2021/08/18 12:11:32;;;;;;;9.60;8.10;;;18.40;99.90;;;;;;5090756;28;20471;-40
2021/08/18 12:14:09;;;;;;;7.80;7.20;;;18.30;99.90;;;;;;5099482;28;20445;-42
2021/08/18 12:16:34;;;;;;;7.17;6.47;;;18.30;99.90;;;;;;5108811;28;20421;-40
2021/08/18 12:19:20;;;;;;;6.00;5.40;;;18.30;99.90;;;;;;5108594;28;20450;-40
2021/08/18 12:22:05;;;;;;;6.13;5.53;;;18.30;99.90;;;;;;5109265;28;20569;-39
2021/08/18 12:24:31;;;;;;;6.27;5.67;;;18.30;99.90;;;;;;5108922;28;20421;-38
2021/08/18 12:27:08;;;;;;;4.87;4.47;;;18.30;99.90;;;;;;5107002;28;20442;-41
2021/08/18 12:29:36;;;;;;;5.57;5.17;;;18.40;99.90;;;;;;5102689;28;20464;-38
2021/08/18 12:32:10;;;;;;;5.60;5.10;;;18.30;99.90;;;;;;5090422;28;20433;-39
2021/08/18 12:34:42;;;;;;;6.23;5.73;;;18.30;99.90;;;;;;5108524;28;20413;-42
2021/08/18 12:37:19;;;;;;;4.80;4.47;;;18.30;99.90;;;;;;5108783;28;20443;-41